Time;durP1;ratioP1;P1;durP2;ratioP2;P2;SDS_P1;SDS_P2;PMS_P1;PMS_P2;Temp;Humidity;BMP_temperature;BMP_pressure;BME280_temperature;BME280_humidity;BME280_pressure;Samples;Min_cycle;Max_cycle;Signal;HPM_P1;HPM_P2
2022/05/08 00:01:43;;;;;;;15.60;14.30;;;14.30;99.90;;;;;;4995979;28;20453;-66
2022/05/08 00:04:10;;;;;;;16.40;15.00;;;14.30;99.90;;;;;;4996212;28;20449;-66
2022/05/08 00:06:37;;;;;;;18.10;16.50;;;14.20;99.90;;;;;;4996149;28;20473;-66
2022/05/08 00:09:04;;;;;;;17.10;15.70;;;14.20;99.90;;;;;;4996200;28;20462;-66
2022/05/08 00:11:31;;;;;;;16.90;15.40;;;14.10;99.90;;;;;;4996103;28;20453;-66
2022/05/08 00:13:57;;;;;;;17.70;16.20;;;14.10;99.90;;;;;;4995973;28;20478;-66
2022/05/08 00:16:24;;;;;;;16.57;15.17;;;14.00;99.90;;;;;;4996125;28;20468;-66
2022/05/08 00:18:51;;;;;;;16.97;15.33;;;14.00;99.90;;;;;;4995859;28;20474;-66
2022/05/08 00:21:19;;;;;;;17.70;15.90;;;13.90;99.90;;;;;;4995967;28;20454;-65
2022/05/08 00:23:45;;;;;;;18.93;17.30;;;13.80;99.90;;;;;;4995587;28;20536;-66
2022/05/08 00:26:13;;;;;;;18.57;16.87;;;13.70;99.90;;;;;;4995853;28;20461;-65
2022/05/08 00:28:39;;;;;;;19.63;18.03;;;13.70;99.90;;;;;;4995605;28;20456;-65
2022/05/08 00:31:09;;;;;;;22.87;20.87;;;13.70;99.90;;;;;;4995297;28;20458;-66
2022/05/08 00:33:36;;;;;;;22.57;20.57;;;13.70;99.90;;;;;;4995231;28;20991;-66
2022/05/08 00:36:02;;;;;;;21.10;19.40;;;13.70;99.90;;;;;;4994848;28;20461;-66
2022/05/08 00:38:30;;;;;;;20.77;18.83;;;13.70;99.90;;;;;;4995527;28;20480;-66
2022/05/08 00:40:57;;;;;;;20.40;18.43;;;13.70;99.90;;;;;;4995448;28;20465;-66
2022/05/08 00:43:33;;;;;;;19.63;18.03;;;13.60;99.90;;;;;;4995331;28;20605;-66
2022/05/08 00:46:01;;;;;;;18.50;17.00;;;13.60;99.90;;;;;;4996522;28;20496;-66
2022/05/08 00:48:28;;;;;;;19.23;17.37;;;13.60;99.90;;;;;;5002115;28;20458;-66
2022/05/08 00:50:56;;;;;;;20.07;18.27;;;13.50;99.90;;;;;;4996753;28;20460;-66
2022/05/08 00:53:25;;;;;;;19.87;18.00;;;13.50;99.90;;;;;;4995229;28;20481;-66
2022/05/08 00:55:55;;;;;;;21.13;19.03;;;13.50;99.90;;;;;;4995139;28;20458;-66
2022/05/08 00:58:21;;;;;;;20.10;18.43;;;13.50;99.90;;;;;;4995620;28;20489;-66
2022/05/08 01:00:48;;;;;;;20.97;18.97;;;13.40;99.90;;;;;;4995825;28;20465;-67
2022/05/08 01:03:15;;;;;;;20.10;18.57;;;13.30;99.90;;;;;;4994742;28;20486;-66
2022/05/08 01:05:42;;;;;;;20.10;18.50;;;13.30;99.90;;;;;;4995051;28;20454;-65
2022/05/08 01:08:10;;;;;;;20.50;18.90;;;13.20;99.90;;;;;;4995591;28;20461;-65
2022/05/08 01:10:37;;;;;;;20.70;19.00;;;13.20;99.90;;;;;;4994986;28;20454;-66
2022/05/08 01:13:06;;;;;;;21.00;19.20;;;13.10;99.90;;;;;;4994475;28;20995;-65
2022/05/08 01:15:40;;;;;;;19.10;17.40;;;13.10;99.90;;;;;;4994386;28;20981;-67
2022/05/08 01:18:07;;;;;;;20.17;18.43;;;13.10;99.90;;;;;;4994743;28;20441;-66
2022/05/08 01:20:34;;;;;;;19.40;17.80;;;13.10;99.90;;;;;;4994752;28;20887;-66
2022/05/08 01:23:04;;;;;;;21.10;19.30;;;13.10;99.90;;;;;;4994602;28;20477;-67
2022/05/08 01:25:31;;;;;;;19.53;17.80;;;13.00;99.90;;;;;;4994335;28;20947;-66
2022/05/08 01:27:57;;;;;;;20.30;18.70;;;13.00;99.90;;;;;;4994467;28;20449;-66
2022/05/08 01:30:25;;;;;;;20.30;18.57;;;13.00;99.90;;;;;;4994638;28;20477;-66
2022/05/08 01:32:52;;;;;;;20.83;18.80;;;12.90;99.90;;;;;;4994157;28;20955;-66
2022/05/08 01:35:19;;;;;;;20.37;18.73;;;12.90;99.90;;;;;;4994477;28;20457;-66
2022/05/08 01:37:46;;;;;;;19.93;18.33;;;12.80;99.90;;;;;;4994495;28;20512;-66
2022/05/08 01:40:14;;;;;;;19.43;17.67;;;12.80;99.90;;;;;;4994422;28;20473;-66
2022/05/08 01:42:40;;;;;;;19.97;18.10;;;12.80;99.90;;;;;;4994503;28;20481;-66
2022/05/08 01:45:08;;;;;;;18.80;17.10;;;12.70;99.90;;;;;;4994404;28;20457;-66
2022/05/08 01:50:20;;;;;;;20.40;18.70;;;12.70;99.90;;;;;;4994536;28;20529;-66
2022/05/08 01:52:47;;;;;;;21.70;19.50;;;12.70;99.90;;;;;;4994321;28;20480;-66
2022/05/08 01:55:15;;;;;;;22.90;20.60;;;12.60;99.90;;;;;;4993945;28;20939;-66
2022/05/08 01:57:42;;;;;;;24.80;22.53;;;12.50;99.90;;;;;;4994063;28;20458;-66
2022/05/08 02:00:09;;;;;;;24.17;21.97;;;12.40;99.90;;;;;;4993882;28;20484;-66
2022/05/08 02:02:36;;;;;;;21.97;20.07;;;12.40;99.90;;;;;;4993648;28;20835;-66
2022/05/08 02:05:04;;;;;;;23.00;20.93;;;12.40;99.90;;;;;;4993709;28;20525;-66
2022/05/08 02:07:31;;;;;;;22.83;20.90;;;12.40;99.90;;;;;;4993980;28;20459;-66
2022/05/08 02:09:58;;;;;;;22.80;20.90;;;12.40;99.90;;;;;;4993921;28;20508;-66
2022/05/08 02:12:26;;;;;;;22.17;20.37;;;12.40;99.90;;;;;;4993990;28;20477;-66
2022/05/08 02:14:53;;;;;;;23.37;21.33;;;12.40;99.90;;;;;;4994130;28;20456;-66
2022/05/08 02:17:22;;;;;;;22.77;20.77;;;12.30;99.90;;;;;;4994245;28;20961;-66
2022/05/08 02:19:48;;;;;;;22.67;20.67;;;12.30;99.90;;;;;;4994162;28;20528;-66
2022/05/08 02:22:15;;;;;;;20.87;19.07;;;12.30;99.90;;;;;;4993961;28;20477;-66
2022/05/08 02:24:42;;;;;;;21.57;19.80;;;12.30;99.90;;;;;;4993937;28;20487;-66
2022/05/08 02:27:08;;;;;;;21.63;19.93;;;12.40;99.90;;;;;;4994160;28;20468;-66
2022/05/08 02:29:36;;;;;;;21.53;19.90;;;12.40;99.90;;;;;;4994082;28;20454;-66
2022/05/08 02:32:04;;;;;;;20.87;18.73;;;12.40;99.90;;;;;;4993343;28;20892;-66
2022/05/08 02:34:30;;;;;;;21.10;19.30;;;12.40;99.90;;;;;;4994012;28;20465;-66
2022/05/08 02:36:57;;;;;;;20.37;18.63;;;12.40;99.90;;;;;;4993902;28;20462;-66
2022/05/08 02:39:24;;;;;;;21.40;19.30;;;12.40;99.90;;;;;;4993496;28;20986;-66
2022/05/08 02:41:52;;;;;;;22.90;20.70;;;12.30;99.90;;;;;;4993743;28;20800;-66
2022/05/08 02:44:19;;;;;;;21.93;19.93;;;12.30;99.90;;;;;;4993919;28;20454;-66
2022/05/08 02:46:47;;;;;;;24.03;21.97;;;12.20;99.90;;;;;;4993786;28;20466;-66
2022/05/08 02:49:14;;;;;;;21.63;19.50;;;12.20;99.90;;;;;;4993802;28;20476;-66
2022/05/08 02:51:41;;;;;;;21.00;19.20;;;12.20;99.90;;;;;;4993728;28;20464;-66
2022/05/08 02:54:07;;;;;;;21.87;20.07;;;12.20;99.90;;;;;;4993740;28;20460;-66
2022/05/08 02:59:18;;;;;;;21.50;19.40;;;12.10;99.90;;;;;;4995868;28;20862;-66
2022/05/08 03:01:46;;;;;;;21.60;19.80;;;12.10;99.90;;;;;;4997087;28;20835;-66
2022/05/08 03:04:13;;;;;;;21.97;19.87;;;12.10;99.90;;;;;;4997263;28;20448;-66
2022/05/08 03:06:40;;;;;;;22.70;20.50;;;12.00;99.90;;;;;;4997225;28;20458;-65
2022/05/08 03:09:07;;;;;;;21.83;20.03;;;12.00;99.90;;;;;;4997155;28;20472;-65
2022/05/08 03:11:35;;;;;;;22.33;20.27;;;11.90;99.90;;;;;;4997117;28;20457;-65
2022/05/08 03:14:03;;;;;;;21.37;19.47;;;11.90;99.90;;;;;;4996949;28;20480;-65
2022/05/08 03:16:30;;;;;;;21.90;20.10;;;11.90;99.90;;;;;;4997010;28;20460;-65
2022/05/08 03:18:58;;;;;;;22.70;20.77;;;11.90;99.90;;;;;;4996831;28;20461;-65
2022/05/08 03:21:25;;;;;;;22.23;20.33;;;11.90;99.90;;;;;;4997030;28;20460;-65
2022/05/08 03:23:52;;;;;;;22.00;20.00;;;11.90;99.90;;;;;;4996929;28;20532;-66
2022/05/08 03:26:20;;;;;;;22.50;20.13;;;11.90;99.90;;;;;;4996932;28;20831;-66
2022/05/08 03:28:48;;;;;;;22.53;20.43;;;11.90;99.90;;;;;;4996698;28;20496;-65
2022/05/08 03:31:15;;;;;;;24.70;22.60;;;11.90;99.90;;;;;;4996676;28;20446;-64
2022/05/08 03:33:41;;;;;;;22.37;20.13;;;11.90;99.90;;;;;;4996648;28;20486;-65
2022/05/08 03:36:11;;;;;;;23.80;21.50;;;11.90;99.90;;;;;;4996199;28;20458;-65
2022/05/08 03:38:41;;;;;;;22.77;20.77;;;11.90;99.90;;;;;;4996447;28;20453;-65
2022/05/08 03:41:08;;;;;;;23.10;21.07;;;11.90;99.90;;;;;;4996535;28;20465;-67
2022/05/08 03:43:36;;;;;;;24.57;22.10;;;11.90;99.90;;;;;;4996641;28;20846;-67
2022/05/08 03:46:03;;;;;;;21.70;19.60;;;11.90;99.90;;;;;;4996585;28;20465;-67
2022/05/08 03:48:29;;;;;;;25.73;23.60;;;11.80;99.90;;;;;;4996201;28;20954;-66
2022/05/08 03:50:56;;;;;;;24.80;22.70;;;11.80;99.90;;;;;;5002295;28;20446;-66
2022/05/08 03:53:25;;;;;;;24.17;22.17;;;11.80;99.90;;;;;;4998841;28;20480;-66
2022/05/08 03:55:51;;;;;;;23.77;21.70;;;11.80;99.90;;;;;;4996344;28;20457;-66
2022/05/08 03:58:18;;;;;;;26.00;23.53;;;11.70;99.90;;;;;;4996901;28;20458;-67
2022/05/08 04:00:45;;;;;;;27.63;24.97;;;11.70;99.90;;;;;;4996170;28;20480;-67
2022/05/08 04:03:12;;;;;;;27.27;24.67;;;11.70;99.90;;;;;;4995827;28;20486;-67
2022/05/08 04:05:39;;;;;;;27.63;25.03;;;11.60;99.90;;;;;;4996243;28;20467;-66
2022/05/08 04:08:06;;;;;;;28.43;25.80;;;11.50;99.90;;;;;;4995800;28;20946;-65
2022/05/08 04:10:34;;;;;;;25.33;22.80;;;11.50;99.90;;;;;;4995055;28;20453;-68
2022/05/08 04:13:01;;;;;;;24.17;22.07;;;11.50;99.90;;;;;;4996497;28;20822;-66
2022/05/08 04:18:12;;;;;;;24.03;22.10;;;11.50;99.90;;;;;;4995979;28;20413;-67
2022/05/08 04:20:39;;;;;;;24.13;21.93;;;11.50;99.90;;;;;;4995851;28;20489;-66
2022/05/08 04:25:53;;;;;;;22.50;20.60;;;11.50;99.90;;;;;;4995890;28;20941;-66
2022/05/08 04:28:20;;;;;;;22.40;20.40;;;11.60;99.90;;;;;;4995408;28;20966;-67
2022/05/08 04:30:47;;;;;;;20.93;19.13;;;11.60;99.90;;;;;;4995810;28;20824;-66
2022/05/08 04:33:14;;;;;;;22.80;20.80;;;11.60;99.90;;;;;;4995605;28;20477;-67
2022/05/08 04:35:40;;;;;;;22.50;20.40;;;11.60;99.90;;;;;;4995642;28;20462;-66
2022/05/08 04:38:07;;;;;;;22.23;20.23;;;11.60;99.90;;;;;;4995960;28;20457;-66
2022/05/08 04:40:34;;;;;;;22.20;19.93;;;11.60;99.90;;;;;;4995331;28;20473;-67
2022/05/08 04:43:02;;;;;;;22.00;20.17;;;11.60;99.90;;;;;;4995315;28;20480;-66
2022/05/08 04:45:28;;;;;;;22.03;20.13;;;11.60;99.90;;;;;;4995365;28;20453;-67
2022/05/08 04:47:55;;;;;;;24.43;22.33;;;11.60;99.90;;;;;;4995280;28;20461;-67
2022/05/08 04:50:22;;;;;;;22.27;19.97;;;11.60;99.90;;;;;;4995355;28;20454;-67
2022/05/08 04:52:48;;;;;;;23.23;21.07;;;11.70;99.90;;;;;;4995329;28;20477;-68
2022/05/08 04:55:15;;;;;;;23.80;21.53;;;11.70;99.90;;;;;;4995236;28;20458;-67
2022/05/08 04:57:42;;;;;;;26.03;23.63;;;11.80;99.90;;;;;;4994875;28;20461;-67
2022/05/08 05:00:11;;;;;;;24.53;22.43;;;11.80;99.90;;;;;;4994841;28;21002;-67
2022/05/08 05:02:38;;;;;;;26.70;24.30;;;11.80;99.90;;;;;;4995016;28;20486;-67
2022/05/08 05:05:06;;;;;;;25.60;23.10;;;11.90;99.90;;;;;;4994833;28;20997;-67
2022/05/08 05:07:32;;;;;;;25.23;23.03;;;11.90;99.90;;;;;;4995048;28;20452;-68
2022/05/08 05:09:59;;;;;;;24.00;22.00;;;11.90;99.90;;;;;;4994555;28;20854;-68
2022/05/08 05:12:26;;;;;;;23.37;21.37;;;11.90;99.90;;;;;;4994468;28;20886;-67
2022/05/08 05:14:52;;;;;;;22.67;20.60;;;11.90;99.90;;;;;;4994909;28;20454;-67
2022/05/08 05:17:21;;;;;;;23.13;21.13;;;11.90;99.90;;;;;;4994658;28;20910;-67
2022/05/08 05:19:47;;;;;;;23.40;21.17;;;11.90;99.90;;;;;;4994801;28;20438;-68
2022/05/08 05:22:14;;;;;;;24.80;22.33;;;11.90;99.90;;;;;;4994662;28;20481;-67
2022/05/08 05:24:42;;;;;;;24.47;22.27;;;12.00;99.90;;;;;;4994803;28;20533;-67
2022/05/08 05:27:09;;;;;;;25.93;23.03;;;12.10;99.90;;;;;;4994850;28;20469;-66
2022/05/08 05:29:35;;;;;;;26.73;24.30;;;12.10;99.90;;;;;;4994910;28;20904;-67
2022/05/08 05:32:02;;;;;;;26.03;23.63;;;12.10;99.90;;;;;;4994600;28;20472;-67
2022/05/08 05:34:30;;;;;;;22.77;20.77;;;12.20;99.90;;;;;;4995366;28;20480;-67
2022/05/08 05:36:57;;;;;;;22.80;20.70;;;12.10;99.90;;;;;;4994507;28;20454;-67
2022/05/08 05:39:24;;;;;;;24.40;21.90;;;12.10;99.90;;;;;;4994537;28;20453;-66
2022/05/08 05:41:51;;;;;;;22.67;20.70;;;12.10;99.90;;;;;;4994398;28;20517;-67
2022/05/08 05:44:18;;;;;;;24.57;22.37;;;12.20;99.90;;;;;;4994543;28;20864;-67
2022/05/08 05:49:30;;;;;;;24.07;21.97;;;12.20;99.90;;;;;;4994193;28;20421;-67
2022/05/08 05:51:58;;;;;;;22.87;21.07;;;12.30;99.90;;;;;;4994235;28;20457;-67
2022/05/08 05:54:25;;;;;;;22.67;20.67;;;12.40;99.90;;;;;;4995117;28;20458;-67
2022/05/08 05:56:52;;;;;;;21.73;19.97;;;12.50;99.90;;;;;;4994395;28;20460;-66
2022/05/08 05:59:19;;;;;;;24.17;21.87;;;12.60;99.90;;;;;;4995321;28;20465;-67
2022/05/08 06:01:46;;;;;;;24.37;21.83;;;12.50;99.90;;;;;;4993994;28;20477;-67
2022/05/08 06:04:13;;;;;;;22.70;20.70;;;12.50;99.90;;;;;;4994670;28;20438;-67
2022/05/08 06:06:41;;;;;;;21.73;19.77;;;12.60;99.90;;;;;;4994235;28;20939;-67
2022/05/08 06:09:08;;;;;;;22.37;20.33;;;12.70;99.90;;;;;;4994513;28;20453;-67
2022/05/08 06:11:35;;;;;;;22.97;20.83;;;12.80;99.90;;;;;;4994403;28;20482;-68
2022/05/08 06:14:02;;;;;;;21.50;19.80;;;12.90;99.90;;;;;;4994135;28;20532;-67
2022/05/08 06:16:31;;;;;;;22.97;20.97;;;13.00;99.90;;;;;;4993863;28;20446;-68
2022/05/08 06:18:58;;;;;;;22.20;20.20;;;13.20;99.90;;;;;;4994207;28;20454;-68
2022/05/08 06:21:25;;;;;;;22.97;20.97;;;13.30;99.90;;;;;;4994008;28;20965;-68
2022/05/08 06:23:54;;;;;;;21.43;19.83;;;13.20;99.90;;;;;;4994082;28;20473;-68
2022/05/08 06:26:20;;;;;;;20.43;18.60;;;13.30;99.90;;;;;;4994178;28;20450;-69
2022/05/08 06:28:48;;;;;;;19.90;18.13;;;13.40;99.90;;;;;;5003089;28;20468;-68
2022/05/08 06:31:16;;;;;;;21.53;19.80;;;13.60;99.90;;;;;;4999968;28;20851;-68
2022/05/08 06:33:43;;;;;;;20.20;18.50;;;13.60;99.90;;;;;;4995481;28;20491;-68
2022/05/08 06:36:10;;;;;;;20.60;18.97;;;13.70;99.90;;;;;;4997907;28;20485;-68
2022/05/08 06:38:36;;;;;;;20.90;19.07;;;13.80;99.90;;;;;;4997932;28;20456;-68
2022/05/08 06:41:05;;;;;;;20.50;18.80;;;13.90;99.90;;;;;;4997397;28;20986;-67
2022/05/08 06:43:31;;;;;;;19.90;18.17;;;14.10;99.90;;;;;;4997678;28;20473;-68
2022/05/08 06:45:58;;;;;;;19.27;17.77;;;14.30;99.90;;;;;;4998086;28;20485;-68
2022/05/08 06:48:27;;;;;;;19.60;18.00;;;14.50;99.90;;;;;;4997889;28;20453;-67
2022/05/08 06:50:54;;;;;;;19.43;16.97;;;14.90;99.90;;;;;;4997912;28;20453;-67
2022/05/08 06:53:20;;;;;;;19.87;18.17;;;15.20;99.90;;;;;;4997557;28;20927;-67
2022/05/08 06:55:47;;;;;;;19.37;17.77;;;15.30;99.90;;;;;;4997626;28;20461;-67
2022/05/08 06:58:15;;;;;;;19.23;17.60;;;15.40;99.90;;;;;;4997577;28;20453;-68
2022/05/08 07:03:26;;;;;;;19.67;17.97;;;15.40;99.90;;;;;;4997017;28;20472;-67
2022/05/08 07:05:54;;;;;;;18.63;17.23;;;15.50;99.90;;;;;;4997012;28;20986;-68
2022/05/08 07:08:21;;;;;;;17.53;16.13;;;15.50;99.90;;;;;;4997199;28;20465;-68
2022/05/08 07:10:48;;;;;;;20.80;19.30;;;15.70;99.90;;;;;;4997313;28;20453;-67
2022/05/08 07:13:16;;;;;;;18.50;17.07;;;15.60;99.90;;;;;;4996725;28;20990;-68
2022/05/08 07:15:43;;;;;;;19.10;17.60;;;15.60;99.90;;;;;;4997079;28;20455;-67
2022/05/08 07:18:10;;;;;;;19.10;17.60;;;15.80;99.90;;;;;;4996824;28;20973;-67
2022/05/08 07:20:36;;;;;;;19.77;18.07;;;15.90;99.90;;;;;;4996713;28;21014;-67
2022/05/08 07:23:03;;;;;;;17.80;16.30;;;16.20;99.90;;;;;;4996950;28;20479;-67
2022/05/08 07:25:30;;;;;;;17.80;16.30;;;16.50;99.90;;;;;;4997148;28;20442;-68
2022/05/08 07:27:57;;;;;;;17.63;16.43;;;16.90;99.90;;;;;;4996968;28;20453;-67
2022/05/08 07:30:25;;;;;;;17.20;15.90;;;17.20;99.90;;;;;;4997118;28;20453;-67
2022/05/08 07:32:51;;;;;;;18.87;17.23;;;17.70;99.90;;;;;;4997632;28;20500;-68
2022/05/08 07:38:03;;;;;;;17.77;16.27;;;18.60;99.90;;;;;;4997269;28;20421;-67
2022/05/08 07:40:30;;;;;;;17.40;16.10;;;18.70;99.90;;;;;;4997048;28;20457;-67
2022/05/08 07:42:57;;;;;;;16.77;15.47;;;18.90;99.90;;;;;;4996463;28;20488;-67
2022/05/08 07:45:26;;;;;;;18.30;16.80;;;19.10;99.90;;;;;;4996619;28;20462;-67
2022/05/08 07:47:53;;;;;;;17.13;15.83;;;19.20;99.90;;;;;;4996702;28;20460;-68
2022/05/08 07:50:20;;;;;;;17.10;15.80;;;19.20;99.90;;;;;;4996622;28;20458;-67
2022/05/08 07:52:46;;;;;;;17.20;15.80;;;19.30;99.90;;;;;;4996449;28;20474;-67
2022/05/08 07:55:13;;;;;;;16.93;15.73;;;19.30;99.90;;;;;;4996659;28;20458;-67
2022/05/08 07:57:40;;;;;;;19.17;17.43;;;19.20;99.90;;;;;;4996482;28;20830;-66
2022/05/08 08:00:07;;;;;;;18.80;17.10;;;19.20;99.90;;;;;;4996418;28;20465;-66
2022/05/08 08:02:35;;;;;;;19.60;18.17;;;18.80;99.90;;;;;;4995818;28;20517;-67
2022/05/08 08:05:02;;;;;;;19.53;18.13;;;18.80;99.90;;;;;;4995980;28;20947;-66
2022/05/08 08:07:29;;;;;;;20.03;18.47;;;18.70;99.90;;;;;;4996268;28;20457;-66
2022/05/08 08:09:55;;;;;;;19.00;17.60;;;18.50;99.90;;;;;;4996383;28;20446;-66
2022/05/08 08:12:22;;;;;;;17.73;16.50;;;18.50;99.90;;;;;;4995914;28;20864;-67
2022/05/08 08:14:49;;;;;;;16.37;15.03;;;18.60;99.90;;;;;;4996268;28;20453;-67
2022/05/08 08:17:16;;;;;;;15.50;14.30;;;18.80;99.90;;;;;;4996176;28;20460;-66
2022/05/08 08:19:44;;;;;;;16.17;14.60;;;18.80;99.90;;;;;;4996306;28;20476;-67
2022/05/08 08:22:10;;;;;;;15.27;14.13;;;19.00;99.90;;;;;;4995930;28;20509;-66
2022/05/08 08:24:37;;;;;;;15.90;14.70;;;19.40;99.90;;;;;;4996284;28;20828;-66
2022/05/08 08:27:04;;;;;;;15.33;14.23;;;19.80;99.90;;;;;;4996031;28;20453;-66
2022/05/08 08:29:31;;;;;;;15.30;14.20;;;20.00;99.90;;;;;;4995681;28;20453;-67
2022/05/08 08:31:58;;;;;;;14.53;13.40;;;20.20;99.90;;;;;;4995809;28;20453;-68
2022/05/08 08:34:26;;;;;;;14.67;13.57;;;20.30;99.90;;;;;;4995962;28;20821;-67
2022/05/08 08:36:54;;;;;;;14.57;13.47;;;20.20;99.90;;;;;;4996394;28;21044;-68
2022/05/08 08:39:21;;;;;;;15.30;14.10;;;20.20;99.90;;;;;;4997236;28;20464;-68
2022/05/08 08:41:58;;;;;;;16.57;15.20;;;20.30;99.90;;;;;;4996046;28;20524;-67
2022/05/08 08:50:03;;;;;;;17.03;15.63;;;20.20;99.90;;;;;;4995236;28;20550;-68
2022/05/08 08:52:31;;;;;;;15.10;13.87;;;20.40;99.90;;;;;;4995141;28;20482;-68
2022/05/08 08:54:58;;;;;;;14.83;13.53;;;20.60;99.90;;;;;;4995510;28;20458;-68
2022/05/08 08:57:24;;;;;;;17.17;15.40;;;20.60;99.90;;;;;;4995087;28;20441;-66
2022/05/08 08:59:51;;;;;;;14.67;13.67;;;20.70;99.90;;;;;;4995207;28;20457;-67
2022/05/08 09:02:20;;;;;;;15.67;14.50;;;20.80;99.90;;;;;;4994947;28;20513;-66
2022/05/08 09:04:49;;;;;;;15.00;14.00;;;20.70;99.90;;;;;;4994893;28;20903;-67
2022/05/08 09:07:43;;;;;;;15.43;14.30;;;20.70;99.90;;;;;;4994978;28;20457;-67
2022/05/08 09:10:11;;;;;;;13.83;12.90;;;20.70;99.90;;;;;;4994941;28;20811;-67
2022/05/08 09:12:39;;;;;;;15.40;14.17;;;20.80;99.90;;;;;;4994897;28;20473;-67
2022/05/08 09:15:19;;;;;;;14.60;13.60;;;20.70;99.90;;;;;;4995006;28;20449;-67
2022/05/08 09:17:47;;;;;;;13.33;12.43;;;20.80;99.90;;;;;;4994902;28;20504;-67
2022/05/08 09:20:31;;;;;;;14.07;12.97;;;21.10;99.90;;;;;;4994861;28;20461;-67
2022/05/08 09:23:09;;;;;;;15.77;14.50;;;21.40;99.90;;;;;;4994660;28;20485;-67
2022/05/08 09:25:47;;;;;;;13.70;12.70;;;21.40;99.90;;;;;;4994858;28;20442;-67
2022/05/08 09:28:15;;;;;;;14.87;13.43;;;21.70;99.90;;;;;;4994817;28;20441;-67
2022/05/08 09:31:05;;;;;;;13.50;12.60;;;22.00;99.90;;;;;;4994796;28;20485;-67
2022/05/08 09:33:34;;;;;;;13.90;12.97;;;22.40;99.90;;;;;;4994826;28;20480;-67
2022/05/08 09:36:02;;;;;;;15.37;13.97;;;22.30;99.90;;;;;;4995228;28;20841;-66
2022/05/08 09:38:46;;;;;;;14.30;13.30;;;22.70;99.90;;;;;;4994470;28;20453;-67
2022/05/08 09:41:14;;;;;;;13.30;12.30;;;22.60;99.90;;;;;;4994622;28;20470;-67
2022/05/08 09:43:42;;;;;;;13.80;12.50;;;22.90;99.90;;;;;;4994533;28;20481;-66
2022/05/08 09:46:09;;;;;;;12.67;11.70;;;23.20;99.90;;;;;;4995216;28;20462;-66
2022/05/08 09:48:37;;;;;;;13.90;12.90;;;23.40;99.90;;;;;;4994685;28;20512;-68
2022/05/08 09:51:05;;;;;;;13.73;12.73;;;23.60;99.90;;;;;;4994549;28;20472;-67
2022/05/08 09:53:32;;;;;;;13.03;12.07;;;23.70;99.90;;;;;;4994460;28;20477;-66
2022/05/08 09:56:02;;;;;;;13.07;12.17;;;24.10;99.90;;;;;;4994604;28;20454;-66
2022/05/08 09:58:29;;;;;;;12.83;11.83;;;24.50;99.90;;;;;;4995047;28;20462;-67
2022/05/08 10:00:57;;;;;;;13.70;12.80;;;25.10;99.90;;;;;;4994644;28;20453;-68
2022/05/08 10:03:24;;;;;;;12.50;11.70;;;25.30;99.90;;;;;;4994385;28;20531;-68
2022/05/08 10:05:51;;;;;;;11.03;10.33;;;25.70;99.90;;;;;;4994505;28;20504;-68
2022/05/08 10:08:22;;;;;;;12.60;11.60;;;26.20;99.90;;;;;;4995555;28;20457;-68
2022/05/08 10:13:57;;;;;;;11.13;10.33;;;26.80;96.00;;;;;;5008288;28;20875;-69
2022/05/08 10:16:50;;;;;;;11.00;10.10;;;27.10;97.50;;;;;;4998512;28;20442;-68
2022/05/08 10:19:53;;;;;;;11.03;10.03;;;27.10;93.70;;;;;;4998348;28;20442;-68
2022/05/08 10:22:20;;;;;;;12.20;11.40;;;26.80;92.10;;;;;;4997825;28;20977;-68
2022/05/08 10:24:51;;;;;;;10.27;9.57;;;26.40;92.90;;;;;;4997877;28;20515;-68
2022/05/08 10:27:26;;;;;;;10.20;9.50;;;26.00;92.50;;;;;;4998254;28;20477;-69
2022/05/08 10:30:21;;;;;;;10.80;10.00;;;25.80;93.90;;;;;;4997818;28;20918;-68
2022/05/08 10:32:52;;;;;;;9.63;8.83;;;25.60;94.30;;;;;;4984817;28;20556;-68
2022/05/08 10:35:22;;;;;;;10.77;9.97;;;25.30;95.40;;;;;;4997741;28;20480;-67
2022/05/08 10:37:50;;;;;;;10.37;9.50;;;25.20;95.90;;;;;;4997835;28;20485;-68
2022/05/08 10:40:34;;;;;;;11.10;10.30;;;25.20;96.50;;;;;;4997887;28;20484;-67
2022/05/08 10:43:25;;;;;;;10.93;9.83;;;25.00;96.70;;;;;;4997587;28;20488;-69
2022/05/08 10:45:54;;;;;;;15.50;11.10;;;25.20;97.10;;;;;;4997399;28;20454;-69
2022/05/08 10:48:21;;;;;;;11.47;8.97;;;25.30;91.30;;;;;;4997548;28;20458;-69
2022/05/08 10:50:50;;;;;;;7.50;6.90;;;25.50;91.80;;;;;;4997579;28;20457;-69
2022/05/08 10:53:27;;;;;;;11.03;9.93;;;25.70;92.20;;;;;;4997479;28;20470;-69
2022/05/08 10:56:01;;;;;;;7.40;6.70;;;25.70;90.70;;;;;;4997574;28;20448;-69
2022/05/08 10:58:27;;;;;;;6.30;5.73;;;25.90;89.40;;;;;;4997201;28;20932;-68
2022/05/08 11:01:00;;;;;;;6.87;6.00;;;26.10;89.40;;;;;;4997320;28;20540;-69
2022/05/08 11:03:28;;;;;;;7.67;6.40;;;26.10;87.20;;;;;;4996909;28;20489;-68
2022/05/08 11:05:56;;;;;;;7.33;6.73;;;26.10;86.50;;;;;;4997326;28;20453;-68
2022/05/08 11:08:28;;;;;;;6.97;6.37;;;26.00;88.20;;;;;;4997286;28;20551;-68
2022/05/08 11:11:02;;;;;;;6.20;5.70;;;26.10;89.80;;;;;;4997264;28;20453;-68
2022/05/08 11:13:47;;;;;;;7.00;6.57;;;26.10;83.00;;;;;;4997076;28;20484;-69
2022/05/08 11:16:33;;;;;;;6.40;5.80;;;25.90;80.50;;;;;;4997240;28;20445;-67
2022/05/08 11:19:01;;;;;;;7.50;7.00;;;25.70;84.30;;;;;;4996672;28;20533;-68
2022/05/08 11:21:27;;;;;;;6.97;6.37;;;25.50;84.50;;;;;;4996673;28;20533;-68
2022/05/08 11:23:55;;;;;;;6.70;6.07;;;25.50;86.60;;;;;;4997168;28;20477;-70
2022/05/08 11:26:28;;;;;;;5.80;5.40;;;25.30;87.90;;;;;;4997399;28;20469;-68
2022/05/08 11:28:57;;;;;;;6.83;6.30;;;25.40;86.70;;;;;;4996800;28;20915;-68
2022/05/08 11:31:27;;;;;;;7.83;6.30;;;25.20;81.00;;;;;;4996846;28;21034;-68
2022/05/08 11:36:40;;;;;;;6.33;5.90;;;25.10;85.40;;;;;;4997157;28;20433;-71
2022/05/08 11:39:11;;;;;;;6.37;5.20;;;25.00;83.60;;;;;;4997077;28;20466;-69
2022/05/08 11:41:39;;;;;;;7.53;6.83;;;25.00;82.50;;;;;;4996950;28;20435;-69
2022/05/08 11:44:24;;;;;;;8.30;7.60;;;25.00;89.50;;;;;;4996554;28;20480;-67
2022/05/08 11:46:55;;;;;;;6.30;5.70;;;25.00;84.40;;;;;;4996706;28;20847;-68
2022/05/08 11:49:23;;;;;;;6.60;6.20;;;25.00;85.60;;;;;;4996429;28;20438;-68
2022/05/08 11:51:51;;;;;;;6.30;5.90;;;25.00;87.50;;;;;;4996349;28;20773;-68
2022/05/08 11:54:20;;;;;;;6.80;6.40;;;25.10;86.80;;;;;;4996718;28;20454;-67
2022/05/08 11:56:51;;;;;;;6.10;5.70;;;25.20;85.80;;;;;;4996521;28;20481;-67
2022/05/08 11:59:19;;;;;;;7.13;6.57;;;25.30;85.20;;;;;;4996572;28;20449;-67
2022/05/08 12:01:52;;;;;;;6.53;6.13;;;25.50;85.30;;;;;;4996177;28;20453;-68
2022/05/08 12:04:26;;;;;;;7.07;6.40;;;25.50;79.00;;;;;;4996146;28;20929;-69
2022/05/08 12:07:01;;;;;;;6.50;6.10;;;25.40;81.90;;;;;;4996342;28;20488;-68
2022/05/08 12:09:28;;;;;;;6.30;5.90;;;25.00;83.60;;;;;;4996409;28;20460;-69
2022/05/08 12:11:55;;;;;;;5.80;5.40;;;24.80;82.60;;;;;;4996138;28;20938;-69
2022/05/08 12:14:32;;;;;;;6.23;5.37;;;24.90;83.10;;;;;;4996608;28;20442;-69
2022/05/08 12:17:03;;;;;;;5.10;4.77;;;24.90;83.70;;;;;;4996280;28;20508;-69
2022/05/08 12:19:31;;;;;;;5.77;5.33;;;25.00;81.10;;;;;;4996521;28;20453;-69
2022/05/08 12:21:58;;;;;;;5.63;5.20;;;25.00;82.70;;;;;;4996074;28;20465;-67
2022/05/08 12:24:25;;;;;;;7.13;5.77;;;25.00;82.90;;;;;;4996108;28;20465;-67
2022/05/08 12:26:52;;;;;;;5.67;5.33;;;25.00;84.50;;;;;;4995883;28;20943;-67
2022/05/08 12:29:23;;;;;;;7.47;5.33;;;25.10;81.50;;;;;;4996197;28;20461;-67
2022/05/08 12:31:51;;;;;;;5.90;5.40;;;25.20;80.90;;;;;;4995041;28;20438;-68
2022/05/08 12:34:20;;;;;;;6.00;5.60;;;25.20;79.40;;;;;;4995875;28;20465;-67
2022/05/08 12:36:49;;;;;;;5.23;4.73;;;24.90;77.30;;;;;;4995825;28;20480;-68
2022/05/08 12:39:17;;;;;;;5.67;5.17;;;25.00;80.30;;;;;;4995691;28;20545;-68
2022/05/08 12:41:44;;;;;;;11.30;5.60;;;24.90;79.80;;;;;;4995350;28;20446;-68
2022/05/08 12:44:11;;;;;;;5.97;5.53;;;24.90;81.20;;;;;;4995012;28;21052;-68
2022/05/08 12:46:38;;;;;;;6.63;6.20;;;25.10;76.60;;;;;;4995089;28;21027;-68
2022/05/08 12:49:05;;;;;;;6.80;6.30;;;25.10;76.60;;;;;;4995359;28;20969;-68
2022/05/08 12:51:34;;;;;;;7.07;5.47;;;25.30;81.10;;;;;;4995565;28;20453;-69
2022/05/08 12:54:03;;;;;;;6.23;5.33;;;25.50;79.40;;;;;;4995442;28;20509;-69
2022/05/08 12:56:31;;;;;;;5.00;4.70;;;25.90;80.30;;;;;;4995301;28;20461;-69
2022/05/08 13:01:42;;;;;;;5.73;4.70;;;26.60;78.00;;;;;;4995437;28;20457;-69
2022/05/08 13:04:09;;;;;;;4.73;4.40;;;26.70;78.00;;;;;;4995215;28;20489;-69
2022/05/08 13:06:36;;;;;;;5.60;5.00;;;26.80;75.50;;;;;;4995247;28;20462;-69
2022/05/08 13:09:06;;;;;;;6.23;5.37;;;26.60;72.70;;;;;;4995118;28;20453;-69
2022/05/08 13:11:33;;;;;;;5.70;5.20;;;26.30;75.80;;;;;;4994786;28;20973;-69